Oxon Hill, Maryland
Current Conditions -  °F | °C
As of 11:22 AM on Wednesday 26 Nov 2014 (Local Time) from KDCA Reporting Station
Light Snow Light Snow  
Wind Chill: 31°   Ceiling: 800
Heat Index: 37°   Visibility: 1.7mi
Dew Point: 32°   Wind: 8mph
Humidity: 81%   Direction: 360°N
Pressure: 30.04"   Gusts: NA
Location:  38.82°N, 77°W
Report Text: KDCA 261622Z 36007KT 1 3/4SM -SNRA OVC008 03/00 A3004 RMK AO2 SNB1556 P0010
Loading
Personal Weather Stations






























Interactive Weather Map New forecast layout! Learn more

10-Day Weather Forecast

Advertisements
Track Severe Weather on mobile